Time;durP1;ratioP1;P1;durP2;ratioP2;P2;SDS_P1;SDS_P2;PMS_P1;PMS_P2;Temp;Humidity;BMP_temperature;BMP_pressure;BME280_temperature;BME280_humidity;BME280_pressure;Samples;Min_cycle;Max_cycle;Signal;HPM_P1;HPM_P2
2022/07/09 00:02:17;;;;;;;8.90;2.10;;;;;;;18.21;63.35;99677.14;235771;1202;139511;-57
2022/07/09 00:07:20;;;;;;;4.40;1.90;;;;;;;18.18;63.50;99678.30;235784;1201;139226;-58
2022/07/09 00:12:23;;;;;;;4.80;1.90;;;;;;;18.21;63.46;99686.13;235768;1203;138792;-57
2022/07/09 00:17:26;;;;;;;9.60;2.30;;;;;;;18.20;63.45;99680.98;235738;1203;139182;-58
2022/07/09 00:22:29;;;;;;;8.30;2.40;;;;;;;18.17;63.39;99676.34;235912;1202;138739;-58
2022/07/09 00:27:32;;;;;;;6.00;2.00;;;;;;;18.09;63.02;99670.81;235832;1203;138858;-57
2022/07/09 00:32:35;;;;;;;6.80;1.90;;;;;;;18.09;63.44;99676.00;235692;1203;139164;-58
2022/07/09 00:37:38;;;;;;;6.80;2.20;;;;;;;18.09;63.47;99674.15;235755;1203;140392;-58
2022/07/09 00:42:41;;;;;;;9.60;2.10;;;;;;;18.11;63.34;99673.27;235764;1203;138798;-58
2022/07/09 00:47:44;;;;;;;6.00;2.10;;;;;;;18.11;63.30;99676.67;235830;1200;138813;-57
2022/07/09 00:52:48;;;;;;;6.50;1.90;;;;;;;18.11;63.31;99672.42;235658;1203;139531;-58
2022/07/09 00:57:51;;;;;;;7.60;1.80;;;;;;;18.11;63.42;99674.56;235883;1202;139795;-58
2022/07/09 01:02:54;;;;;;;3.90;2.00;;;;;;;18.12;63.55;99673.36;235798;1202;138802;-58
2022/07/09 01:07:57;;;;;;;7.30;2.10;;;;;;;18.16;63.40;99674.28;235448;1201;138953;-55
2022/07/09 01:13:02;;;;;;;4.50;1.70;;;;;;;18.15;63.23;99670.41;235701;1203;139964;-57
2022/07/09 01:18:10;;;;;;;11.90;2.30;;;;;;;18.17;63.24;99666.83;235792;1201;138967;-57
2022/07/09 01:23:14;;;;;;;5.70;2.00;;;;;;;18.19;63.39;99668.30;235811;1203;138948;-56
2022/07/09 01:28:17;;;;;;;8.30;2.20;;;;;;;18.22;63.32;99657.13;235781;1202;138761;-58
2022/07/09 01:33:20;;;;;;;6.40;2.10;;;;;;;18.21;63.18;99658.11;235953;1203;139594;-58
2022/07/09 01:38:23;;;;;;;7.70;2.00;;;;;;;18.18;62.99;99650.28;235849;1201;139353;-58
2022/07/09 01:43:26;;;;;;;5.70;2.10;;;;;;;18.16;63.04;99643.43;235789;1202;139680;-58
2022/07/09 01:48:30;;;;;;;6.90;1.80;;;;;;;18.20;63.09;99643.13;235757;1202;138988;-59
2022/07/09 01:53:34;;;;;;;9.50;2.00;;;;;;;18.17;63.35;99638.65;235972;1201;139653;-58
2022/07/09 01:58:37;;;;;;;9.30;2.30;;;;;;;18.17;63.08;99636.67;235749;1200;139708;-57
2022/07/09 02:03:40;;;;;;;8.30;2.20;;;;;;;18.13;62.99;99634.51;235972;1202;138782;-58
2022/07/09 02:08:43;;;;;;;6.40;2.10;;;;;;;18.06;63.09;99628.98;235795;1202;139699;-58
2022/07/09 02:13:46;;;;;;;7.00;2.00;;;;;;;18.03;63.06;99621.36;235780;1203;139780;-59
2022/07/09 02:18:50;;;;;;;5.70;1.90;;;;;;;18.04;63.13;99628.81;235830;1201;139294;-58
2022/07/09 02:23:58;;;;;;;11.60;2.10;;;;;;;18.06;63.34;99628.77;235791;1203;139000;-59
2022/07/09 02:29:02;;;;;;;8.90;2.10;;;;;;;18.06;63.05;99624.73;235602;1203;141229;-58
2022/07/09 02:34:05;;;;;;;9.60;2.30;;;;;;;17.97;63.15;99619.35;235858;1200;138951;-58
2022/07/09 02:39:07;;;;;;;5.20;2.00;;;;;;;17.92;63.12;99608.38;235881;1202;138389;-58
2022/07/09 02:44:10;;;;;;;5.30;1.90;;;;;;;17.87;62.89;99614.98;235804;1201;138889;-58
2022/07/09 02:49:13;;;;;;;9.40;2.20;;;;;;;17.84;63.04;99616.33;235883;1201;140012;-58
2022/07/09 02:54:16;;;;;;;7.20;2.40;;;;;;;17.81;63.27;99616.90;235803;1201;139783;-58
2022/07/09 02:59:20;;;;;;;10.80;2.70;;;;;;;17.83;63.34;99615.84;235787;1202;140284;-59
2022/07/09 03:04:23;;;;;;;7.70;2.60;;;;;;;17.84;63.32;99620.20;235797;1201;139844;-59
2022/07/09 03:09:26;;;;;;;11.10;2.90;;;;;;;17.86;63.28;99617.57;235947;1201;138919;-58
2022/07/09 03:14:29;;;;;;;11.00;3.50;;;;;;;17.83;63.29;99608.64;235897;1203;141753;-57
2022/07/09 03:19:32;;;;;;;9.10;3.20;;;;;;;17.78;63.20;99616.92;235748;1201;139681;-58
2022/07/09 03:24:35;;;;;;;7.30;3.10;;;;;;;17.75;63.10;99614.86;235769;1201;140145;-59
2022/07/09 03:29:38;;;;;;;12.40;2.80;;;;;;;17.77;63.47;99617.38;235850;1202;140289;-58
2022/07/09 03:34:41;;;;;;;6.70;2.80;;;;;;;17.84;63.70;99617.73;235812;1201;138700;-58
2022/07/09 03:39:44;;;;;;;12.40;3.00;;;;;;;17.88;63.50;99618.48;235889;1200;138626;-58
2022/07/09 03:44:47;;;;;;;13.40;3.00;;;;;;;17.86;63.50;99612.50;236024;1202;138614;-57
2022/07/09 03:49:50;;;;;;;11.80;3.80;;;;;;;17.90;63.54;99612.05;235715;1202;139836;-58
2022/07/09 03:54:55;;;;;;;8.40;3.30;;;;;;;17.86;63.30;99612.90;235116;1202;140351;-58
2022/07/09 04:00:07;;;;;;;8.90;2.80;;;;;;;17.81;63.41;99605.62;235981;1201;138785;-57
2022/07/09 04:05:16;;;;;;;7.00;2.80;;;;;;;17.85;63.30;99607.23;235869;1201;139612;-59
2022/07/09 04:10:19;;;;;;;7.40;2.50;;;;;;;17.92;63.50;99607.02;235681;1201;139571;-57
2022/07/09 04:15:22;;;;;;;9.50;2.70;;;;;;;17.97;63.61;99605.33;236003;1201;138842;-58
2022/07/09 04:20:25;;;;;;;7.90;2.80;;;;;;;17.98;63.39;99609.93;235763;1202;138916;-57
2022/07/09 04:25:28;;;;;;;7.50;2.90;;;;;;;18.01;63.28;99610.05;235833;1201;138774;-58
2022/07/09 04:30:31;;;;;;;5.70;2.40;;;;;;;18.00;63.21;99605.42;235807;1203;138827;-56
2022/07/09 04:35:35;;;;;;;7.00;2.70;;;;;;;17.98;63.32;99605.61;235761;1203;138492;-58
2022/07/09 04:40:39;;;;;;;7.80;2.60;;;;;;;17.98;63.22;99604.54;235766;1203;139577;-58
2022/07/09 04:45:42;;;;;;;7.40;2.50;;;;;;;17.98;63.15;99599.33;235892;1201;139449;-58
2022/07/09 04:50:45;;;;;;;5.30;2.40;;;;;;;18.00;62.81;99606.90;235800;1203;138640;-58
2022/07/09 04:55:48;;;;;;;6.50;2.40;;;;;;;18.04;63.11;99601.86;235889;1201;138746;-58
2022/07/09 05:00:51;;;;;;;8.00;2.00;;;;;;;18.19;63.10;99611.07;235788;1201;138627;-58
2022/07/09 05:05:54;;;;;;;11.10;2.70;;;;;;;18.22;62.83;99617.44;235820;1201;138750;-58
2022/07/09 05:10:57;;;;;;;9.70;2.30;;;;;;;18.17;62.57;99624.09;235751;1201;139212;-56
2022/07/09 05:16:00;;;;;;;7.30;2.00;;;;;;;18.15;62.63;99625.04;235749;1202;138942;-57
2022/07/09 05:21:03;;;;;;;10.90;2.60;;;;;;;18.21;62.63;99628.61;235920;1201;140492;-56
2022/07/09 05:26:09;;;;;;;7.10;2.30;;;;;;;18.28;62.66;99628.80;235748;1203;139586;-58
2022/07/09 05:31:13;;;;;;;8.80;2.20;;;;;;;18.27;62.31;99625.98;235837;1200;139286;-58
2022/07/09 05:36:36;;;;;;;10.60;2.10;;;;;;;18.31;62.31;99626.90;235729;1201;139314;-59
2022/07/09 05:41:39;;;;;;;7.50;2.00;;;;;;;18.34;62.34;99620.73;235732;1201;138972;-58
2022/07/09 05:46:42;;;;;;;5.80;2.30;;;;;;;18.37;62.32;99619.71;235813;1201;138546;-57
2022/07/09 05:51:45;;;;;;;9.00;2.10;;;;;;;18.37;62.10;99621.17;235869;1201;138250;-58
2022/07/09 05:56:48;;;;;;;6.80;2.00;;;;;;;18.43;62.06;99613.63;235901;1203;139485;-56
2022/07/09 06:01:51;;;;;;;7.20;2.20;;;;;;;18.52;61.97;99604.83;235771;1200;138784;-56
2022/07/09 06:06:54;;;;;;;10.00;2.40;;;;;;;18.58;62.01;99601.20;235807;1201;138658;-59
2022/07/09 06:11:58;;;;;;;8.50;2.60;;;;;;;18.70;62.16;99598.17;235732;1203;138796;-58
2022/07/09 06:17:07;;;;;;;8.90;3.10;;;;;;;18.85;61.89;99593.28;235744;1201;139044;-57
2022/07/09 06:22:10;;;;;;;7.30;2.80;;;;;;;18.96;61.59;99593.63;235781;1200;139004;-58
2022/07/09 06:27:13;;;;;;;9.10;2.60;;;;;;;19.01;61.43;99588.70;235892;1200;138521;-58
2022/07/09 06:32:16;;;;;;;6.60;2.70;;;;;;;19.07;61.28;99585.95;235669;1203;138966;-57
2022/07/09 06:37:19;;;;;;;9.10;1.90;;;;;;;19.10;61.14;99589.67;235808;1201;138900;-57
2022/07/09 06:42:22;;;;;;;4.80;1.60;;;;;;;19.09;60.91;99582.01;235710;1203;139870;-56
2022/07/09 06:47:33;;;;;;;5.00;1.60;;;;;;;19.08;60.84;99584.98;235760;1201;138609;-58
2022/07/09 06:52:36;;;;;;;8.70;2.10;;;;;;;19.10;60.72;99583.17;235747;1203;138638;-58
2022/07/09 06:57:39;;;;;;;5.20;1.70;;;;;;;19.09;60.67;99578.45;235815;1203;138893;-58
2022/07/09 07:02:42;;;;;;;6.80;1.70;;;;;;;19.17;60.74;99575.21;235717;1199;138844;-57
2022/07/09 07:07:45;;;;;;;5.90;1.60;;;;;;;19.24;60.40;99577.14;235768;1203;138707;-58
2022/07/09 07:12:48;;;;;;;6.00;1.90;;;;;;;19.24;60.21;99572.60;235637;1203;138274;-58
2022/07/09 07:17:51;;;;;;;4.40;1.70;;;;;;;19.28;60.29;99570.46;235840;1200;139174;-59
2022/07/09 07:23:00;;;;;;;5.10;1.60;;;;;;;19.40;60.19;99569.94;235740;1201;139035;-58
2022/07/09 07:28:04;;;;;;;4.10;1.20;;;;;;;19.41;59.84;99566.23;235838;1201;139467;-58
2022/07/09 07:33:07;;;;;;;3.70;1.40;;;;;;;19.45;59.59;99567.70;235890;1201;138783;-57
2022/07/09 07:38:10;;;;;;;4.40;1.40;;;;;;;19.48;59.46;99564.67;235747;1203;138777;-57
2022/07/09 07:43:13;;;;;;;4.20;1.30;;;;;;;19.51;59.31;99564.80;235791;1202;138655;-58
2022/07/09 07:48:16;;;;;;;4.30;1.50;;;;;;;19.51;59.10;99565.14;235729;1202;138906;-57
2022/07/09 07:53:20;;;;;;;4.50;1.30;;;;;;;19.57;59.05;99568.35;235732;1203;138930;-58
2022/07/09 07:58:23;;;;;;;5.10;1.20;;;;;;;19.60;58.79;99564.64;235842;1204;138690;-58
2022/07/09 08:03:26;;;;;;;6.70;1.90;;;;;;;19.64;58.53;99568.18;235901;1201;138554;-58
2022/07/09 08:08:34;;;;;;;10.00;2.30;;;;;;;19.66;58.59;99562.89;235825;1201;138778;-56
2022/07/09 08:13:39;;;;;;;10.20;2.90;;;;;;;19.65;58.76;99563.89;235739;1203;139107;-58
2022/07/09 08:18:42;;;;;;;9.90;2.80;;;;;;;19.68;58.87;99557.31;235797;1203;138854;-57
2022/07/09 08:23:51;;;;;;;4.50;2.40;;;;;;;19.69;58.82;99552.00;235678;1203;138909;-57
2022/07/09 08:28:54;;;;;;;6.90;2.50;;;;;;;19.72;58.94;99548.14;235770;1203;139312;-58
2022/07/09 08:33:57;;;;;;;7.70;2.70;;;;;;;19.78;58.53;99545.91;235772;1200;139900;-58
2022/07/09 08:39:00;;;;;;;7.90;3.00;;;;;;;19.89;58.48;99545.14;236111;1201;138546;-59
2022/07/09 08:44:04;;;;;;;6.50;2.80;;;;;;;19.91;58.32;99542.44;235720;1201;138610;-58
2022/07/09 08:49:08;;;;;;;7.00;2.40;;;;;;;20.01;58.11;99538.89;235831;1200;140309;-58
2022/07/09 08:54:11;;;;;;;6.30;2.60;;;;;;;20.11;57.80;99543.64;235693;1203;138866;-58
2022/07/09 08:59:14;;;;;;;6.60;2.60;;;;;;;20.16;57.66;99527.50;235792;1203;138516;-58
2022/07/09 09:04:18;;;;;;;8.50;2.10;;;;;;;20.32;57.58;99525.95;235774;1202;138938;-58
2022/07/09 09:09:21;;;;;;;8.20;3.10;;;;;;;20.36;57.08;99520.56;235883;1199;139129;-57
2022/07/09 09:14:25;;;;;;;14.20;7.90;;;;;;;20.40;57.05;99520.13;235724;1203;138781;-58
2022/07/09 09:19:29;;;;;;;6.40;2.40;;;;;;;20.48;57.02;99513.48;235803;1200;139268;-58
2022/07/09 09:24:34;;;;;;;6.40;2.20;;;;;;;20.58;56.82;99512.38;235820;1201;140382;-58
2022/07/09 09:29:49;;;;;;;6.60;2.50;;;;;;;20.59;56.74;99503.05;235786;1201;138719;-58
2022/07/09 09:34:52;;;;;;;6.40;2.10;;;;;;;20.78;56.54;99495.58;235801;1200;139101;-56
2022/07/09 09:39:55;;;;;;;4.80;2.40;;;;;;;20.96;56.12;99494.04;235706;1201;138466;-57
2022/07/09 09:44:59;;;;;;;5.40;2.00;;;;;;;21.05;55.80;99485.94;235855;1203;138572;-59
2022/07/09 09:50:02;;;;;;;5.40;2.20;;;;;;;21.08;55.45;99477.14;235780;1201;139020;-58
2022/07/09 09:55:06;;;;;;;9.00;2.40;;;;;;;21.24;55.41;99485.02;235661;1201;138606;-56
2022/07/09 10:00:15;;;;;;;6.80;2.20;;;;;;;21.42;55.38;99470.42;235806;1201;138656;-57
2022/07/09 10:05:18;;;;;;;5.60;2.70;;;;;;;21.59;55.04;99468.89;235593;1203;138958;-58
2022/07/09 10:10:21;;;;;;;5.60;2.00;;;;;;;21.57;54.70;99464.68;235751;1203;138773;-58
2022/07/09 10:15:26;;;;;;;5.70;2.20;;;;;;;21.53;54.52;99461.12;235837;1201;138852;-58
2022/07/09 10:20:36;;;;;;;6.00;2.00;;;;;;;21.39;54.02;99465.45;235734;1200;138667;-59
2022/07/09 10:25:46;;;;;;;3.30;1.80;;;;;;;21.18;53.90;99465.31;235885;1203;138668;-57
2022/07/09 10:30:49;;;;;;;5.50;1.90;;;;;;;20.96;54.03;99457.38;235723;1203;138515;-58
2022/07/09 10:35:57;;;;;;;7.50;2.10;;;;;;;20.80;54.17;99460.23;235772;1201;139019;-59
2022/07/09 10:41:03;;;;;;;6.00;1.80;;;;;;;20.69;54.36;99449.46;235706;1202;138858;-58
2022/07/09 10:46:13;;;;;;;4.80;1.70;;;;;;;20.77;54.77;99442.10;235817;1200;138472;-58
2022/07/09 10:51:22;;;;;;;6.00;2.00;;;;;;;21.18;54.94;99427.14;235794;1202;138947;-58
2022/07/09 10:56:26;;;;;;;5.00;1.70;;;;;;;21.63;54.80;99417.13;235736;1203;138932;-58
2022/07/09 11:01:29;;;;;;;3.60;1.80;;;;;;;21.97;54.02;99412.37;235786;1200;139180;-58
2022/07/09 11:06:32;;;;;;;4.70;1.80;;;;;;;22.25;53.88;99409.35;235680;1200;138650;-59
2022/07/09 11:11:35;;;;;;;6.00;1.80;;;;;;;22.61;53.86;99398.41;235593;1203;138868;-59
2022/07/09 11:16:38;;;;;;;5.00;2.00;;;;;;;22.95;53.47;99393.91;235747;1201;139085;-57
2022/07/09 11:21:42;;;;;;;6.20;2.20;;;;;;;23.21;52.89;99390.20;235835;1203;139898;-59
2022/07/09 11:26:46;;;;;;;3.80;1.70;;;;;;;23.31;52.32;99390.61;235639;1204;138991;-59
2022/07/09 11:31:51;;;;;;;5.20;1.70;;;;;;;23.34;51.91;99378.25;235816;1201;139164;-59
2022/07/09 11:36:56;;;;;;;4.00;1.70;;;;;;;23.22;51.47;99373.73;235678;1201;139159;-59
2022/07/09 11:42:00;;;;;;;;;;;;;;;23.26;51.41;99371.11;235695;1203;138752;-59
2022/07/09 11:47:14;;;;;;;5.80;2.00;;;;;;;23.31;51.06;99356.86;235693;1203;124628;-59
2022/07/09 11:52:18;;;;;;;7.00;1.70;;;;;;;23.31;50.69;99352.15;235745;1200;138711;-58
2022/07/09 11:57:24;;;;;;;4.30;1.70;;;;;;;23.20;50.30;99358.84;235795;1203;138669;-59
2022/07/09 12:02:30;;;;;;;4.10;1.70;;;;;;;23.07;49.89;99346.67;235883;1200;138619;-58
2022/07/09 12:07:37;;;;;;;4.50;1.50;;;;;;;23.04;50.08;99340.31;235750;1201;138446;-59
2022/07/09 12:12:39;;;;;;;4.90;1.50;;;;;;;23.37;49.81;99334.12;235621;1203;138944;-59
2022/07/09 12:17:42;;;;;;;3.20;1.20;;;;;;;23.69;49.62;99317.67;235722;1201;138593;-59
2022/07/09 12:22:45;;;;;;;6.30;1.70;;;;;;;23.95;48.81;99313.70;235759;1201;138860;-59
2022/07/09 12:27:49;;;;;;;4.50;1.80;;;;;;;23.93;48.31;99319.13;235698;1202;139074;-58
2022/07/09 12:32:53;;;;;;;4.40;1.60;;;;;;;24.24;48.43;99308.02;235876;1200;138248;-58
2022/07/09 12:37:56;;;;;;;3.50;1.70;;;;;;;24.51;48.02;99298.36;235685;1203;140670;-59
2022/07/09 12:42:59;;;;;;;6.40;1.70;;;;;;;24.67;47.64;99293.94;235655;1202;138883;-59
2022/07/09 12:48:02;;;;;;;2.80;1.60;;;;;;;24.51;47.13;99295.46;235702;1201;138980;-59
2022/07/09 12:53:05;;;;;;;3.10;1.60;;;;;;;24.16;46.87;99288.42;235697;1201;138642;-58
2022/07/09 12:58:08;;;;;;;3.40;1.60;;;;;;;23.90;46.83;99282.04;235683;1202;139130;-58
2022/07/09 13:03:11;;;;;;;4.90;1.90;;;;;;;24.02;46.95;99275.02;235865;1201;138844;-58
2022/07/09 13:08:14;;;;;;;5.30;1.50;;;;;;;24.21;46.80;99262.34;235688;1203;138518;-59
2022/07/09 13:13:23;;;;;;;4.30;1.40;;;;;;;24.11;46.64;99261.60;235674;1203;138611;-58
2022/07/09 13:18:26;;;;;;;4.30;1.40;;;;;;;23.95;46.49;99264.04;235019;1201;138870;-56
2022/07/09 13:23:30;;;;;;;2.90;1.30;;;;;;;23.72;46.24;99262.77;235703;1203;139204;-58
2022/07/09 13:28:33;;;;;;;4.90;1.50;;;;;;;23.52;46.31;99251.52;235629;1201;138760;-60
2022/07/09 13:33:38;;;;;;;7.20;1.90;;;;;;;23.59;46.51;99245.77;235891;1203;138764;-57
2022/07/09 13:38:40;;;;;;;3.70;1.30;;;;;;;23.91;46.97;99229.62;235721;1203;139079;-57
2022/07/09 13:43:45;;;;;;;3.80;1.20;;;;;;;24.55;46.79;99225.36;235595;1203;138926;-59
2022/07/09 13:48:48;;;;;;;3.50;1.40;;;;;;;25.05;46.19;99208.76;235603;1201;140384;-60
2022/07/09 13:53:51;;;;;;;5.60;1.40;;;;;;;25.24;44.39;99210.52;235791;1201;139222;-59
2022/07/09 13:58:54;;;;;;;3.00;1.30;;;;;;;25.28;43.98;99203.80;235688;1201;138741;-59
2022/07/09 14:03:58;;;;;;;3.00;1.30;;;;;;;25.57;44.17;99187.54;235698;1201;138720;-57
2022/07/09 14:09:01;;;;;;;4.50;1.10;;;;;;;25.98;43.88;99182.00;235685;1200;139647;-60
2022/07/09 14:14:04;;;;;;;2.20;1.00;;;;;;;26.22;41.63;99183.08;235709;1200;138454;-60
2022/07/09 14:19:07;;;;;;;2.00;1.00;;;;;;;26.29;41.08;99168.40;235659;1200;138965;-56
2022/07/09 14:24:10;;;;;;;2.30;1.10;;;;;;;26.45;40.95;99161.47;235736;1203;138751;-59
2022/07/09 14:29:14;;;;;;;3.10;0.90;;;;;;;26.49;40.24;99165.76;235697;1202;138548;-59
2022/07/09 14:34:25;;;;;;;2.80;1.30;;;;;;;26.47;39.75;99160.77;235696;1201;138754;-60
2022/07/09 14:39:28;;;;;;;4.40;1.40;;;;;;;26.25;38.98;99156.20;235767;1203;138375;-60
2022/07/09 14:44:31;;;;;;;2.90;1.10;;;;;;;25.93;38.82;99160.02;235592;1203;139021;-56
2022/07/09 14:49:34;;;;;;;4.40;1.20;;;;;;;25.69;38.60;99151.27;235765;1201;138503;-58
2022/07/09 14:54:37;;;;;;;5.20;1.00;;;;;;;25.60;38.48;99150.86;235700;1201;138887;-57
2022/07/09 14:59:40;;;;;;;4.10;1.10;;;;;;;25.50;38.10;99151.01;235671;1201;138970;-58
2022/07/09 15:04:44;;;;;;;1.60;0.80;;;;;;;25.39;38.07;99145.98;235708;1202;139345;-58
2022/07/09 15:09:47;;;;;;;2.10;1.00;;;;;;;25.35;37.99;99137.42;235768;1201;138695;-57
2022/07/09 15:14:50;;;;;;;1.90;0.90;;;;;;;25.21;37.18;99143.25;235785;1202;139553;-60
2022/07/09 15:19:54;;;;;;;2.50;1.10;;;;;;;25.06;37.21;99138.45;235763;1201;138877;-59
2022/07/09 15:24:56;;;;;;;2.00;0.90;;;;;;;24.91;37.05;99134.00;235675;1203;138876;-59
2022/07/09 15:30:00;;;;;;;2.20;1.00;;;;;;;24.86;37.39;99139.12;235722;1201;138799;-58
2022/07/09 15:35:03;;;;;;;3.20;1.10;;;;;;;24.84;37.25;99134.67;235650;1203;138770;-57
2022/07/09 15:40:08;;;;;;;2.70;1.20;;;;;;;24.76;37.35;99125.68;235792;1203;139498;-58
2022/07/09 15:45:13;;;;;;;2.50;1.20;;;;;;;24.76;37.43;99113.95;235820;1202;140970;-58
2022/07/09 15:50:20;;;;;;;2.30;1.30;;;;;;;24.66;37.02;99112.48;235751;1201;139082;-58
2022/07/09 15:55:23;;;;;;;2.70;1.10;;;;;;;24.50;36.85;99111.46;235698;1203;138891;-57
2022/07/09 16:00:26;;;;;;;4.30;1.10;;;;;;;24.41;37.14;99105.50;235702;1202;138646;-59
2022/07/09 16:05:29;;;;;;;2.40;1.10;;;;;;;24.35;37.49;99104.79;235752;1201;139429;-58
2022/07/09 16:10:32;;;;;;;2.60;1.20;;;;;;;24.27;37.78;99094.41;235742;1201;138529;-57
2022/07/09 16:15:36;;;;;;;6.10;1.50;;;;;;;24.22;37.94;99096.03;235820;1201;138856;-59
2022/07/09 16:20:39;;;;;;;3.00;1.30;;;;;;;24.16;38.02;99095.91;235752;1202;138936;-59
2022/07/09 16:25:42;;;;;;;2.40;1.10;;;;;;;24.10;38.29;99095.41;235721;1200;138765;-59
2022/07/09 16:30:45;;;;;;;4.90;1.40;;;;;;;24.09;38.58;99106.92;235714;1203;138631;-58
2022/07/09 16:35:48;;;;;;;4.40;1.40;;;;;;;24.05;38.49;99101.88;235750;1201;138694;-59
2022/07/09 16:40:51;;;;;;;3.90;1.60;;;;;;;23.99;38.63;99100.25;235766;1201;138893;-59
2022/07/09 16:46:07;;;;;;;5.30;2.10;;;;;;;24.00;38.71;99096.19;235755;1201;140638;-59
2022/07/09 16:51:15;;;;;;;4.30;1.60;;;;;;;23.99;38.73;99098.23;235882;1201;140458;-56
2022/07/09 16:56:19;;;;;;;3.50;2.00;;;;;;;24.03;38.73;99101.41;235739;1201;138572;-59
2022/07/09 17:01:21;;;;;;;3.90;1.80;;;;;;;24.02;38.80;99098.06;235706;1203;138879;-60
2022/07/09 17:06:25;;;;;;;3.20;1.60;;;;;;;24.00;38.92;99101.77;235764;1201;140138;-60
2022/07/09 17:11:28;;;;;;;2.70;1.40;;;;;;;23.92;38.95;99094.08;235827;1203;138589;-60
2022/07/09 17:16:31;;;;;;;2.70;1.50;;;;;;;23.89;39.07;99097.65;235670;1203;138458;-60
2022/07/09 17:21:35;;;;;;;2.70;1.20;;;;;;;23.83;39.15;99090.18;235906;1202;138586;-60
2022/07/09 17:26:37;;;;;;;3.90;1.90;;;;;;;23.78;39.26;99087.33;235705;1203;138777;-59
2022/07/09 17:31:40;;;;;;;4.20;1.90;;;;;;;23.75;39.28;99091.05;235699;1203;138474;-60
2022/07/09 17:36:44;;;;;;;3.60;1.80;;;;;;;23.70;39.41;99088.66;235700;1202;138590;-59
2022/07/09 17:41:47;;;;;;;3.60;1.90;;;;;;;23.58;39.56;99084.91;235785;1203;139245;-58
2022/07/09 17:46:50;;;;;;;4.00;2.00;;;;;;;23.55;39.74;99095.90;235722;1203;138635;-59
2022/07/09 17:51:53;;;;;;;5.40;1.80;;;;;;;23.49;39.95;99091.71;235759;1202;138787;-58
2022/07/09 17:56:56;;;;;;;6.10;1.80;;;;;;;23.45;39.99;99099.41;235847;1203;139025;-59
2022/07/09 18:01:59;;;;;;;3.10;1.70;;;;;;;23.38;40.22;99099.46;235754;1201;139892;-59
2022/07/09 18:07:02;;;;;;;5.30;2.00;;;;;;;23.32;40.36;99099.02;235844;1202;139710;-57
2022/07/09 18:12:05;;;;;;;4.20;2.00;;;;;;;23.27;40.62;99090.98;235752;1202;139318;-59
2022/07/09 18:17:08;;;;;;;7.90;1.80;;;;;;;23.23;40.61;99095.48;235772;1201;138470;-58
2022/07/09 18:22:11;;;;;;;7.40;2.00;;;;;;;23.14;40.99;99096.15;235689;1203;138429;-58
2022/07/09 18:27:14;;;;;;;3.70;1.90;;;;;;;23.08;41.28;99103.11;235919;1202;139604;-59
2022/07/09 18:32:21;;;;;;;3.00;1.70;;;;;;;22.98;41.43;99097.42;235779;1201;138723;-58
2022/07/09 18:37:27;;;;;;;5.00;1.50;;;;;;;22.89;41.81;99096.84;235737;1202;138957;-58
2022/07/09 18:42:30;;;;;;;6.70;1.90;;;;;;;22.85;42.04;99091.85;235421;1203;138771;-57
2022/07/09 18:47:34;;;;;;;4.20;1.70;;;;;;;22.82;42.32;99089.36;235801;1201;140366;-59
2022/07/09 18:52:37;;;;;;;5.70;1.90;;;;;;;22.67;42.01;99091.77;235764;1203;138488;-57
2022/07/09 18:57:40;;;;;;;4.40;1.80;;;;;;;22.52;42.24;99095.91;235826;1202;138576;-57
2022/07/09 19:02:43;;;;;;;6.20;2.20;;;;;;;22.36;42.39;99102.27;235768;1201;138794;-58
2022/07/09 19:07:47;;;;;;;4.30;2.00;;;;;;;22.21;42.80;99106.59;235706;1202;138620;-59
2022/07/09 19:12:50;;;;;;;4.90;1.60;;;;;;;22.07;42.86;99106.55;235779;1203;138690;-58
2022/07/09 19:17:53;;;;;;;4.80;1.80;;;;;;;21.96;43.15;99107.16;235824;1200;139143;-58
2022/07/09 19:22:57;;;;;;;5.90;2.00;;;;;;;21.85;43.52;99106.52;235763;1202;139036;-58
2022/07/09 19:28:02;;;;;;;3.10;2.00;;;;;;;21.78;43.64;99109.96;235768;1201;139867;-57
2022/07/09 19:38:26;;;;;;;4.50;1.80;;;;;;;21.67;44.24;99109.20;235689;1203;138161;-58
2022/07/09 19:43:29;;;;;;;5.40;2.00;;;;;;;21.61;44.35;99105.38;235750;1201;138754;-56
2022/07/09 19:48:32;;;;;;;7.20;2.00;;;;;;;21.56;44.63;99104.81;235649;1203;138834;-56
2022/07/09 19:53:35;;;;;;;6.30;2.00;;;;;;;21.46;44.66;99101.25;235747;1203;138956;-58
2022/07/09 19:58:39;;;;;;;7.40;2.30;;;;;;;21.42;44.51;99100.05;235731;1201;139064;-57
2022/07/09 20:03:43;;;;;;;7.30;2.20;;;;;;;21.38;44.42;99101.39;235941;1201;139994;-58
2022/07/09 20:08:46;;;;;;;5.60;2.50;;;;;;;21.32;44.80;99095.70;235584;1203;138694;-56
2022/07/09 20:13:49;;;;;;;6.40;2.30;;;;;;;21.22;44.95;99098.08;235722;1203;139250;-57
2022/07/09 20:18:52;;;;;;;5.40;2.60;;;;;;;21.11;45.19;99101.70;235772;1201;139206;-59
2022/07/09 20:23:55;;;;;;;5.50;2.40;;;;;;;21.02;45.46;99103.45;235727;1201;138830;-59
2022/07/09 20:28:58;;;;;;;6.40;2.50;;;;;;;20.98;45.91;99114.09;235707;1202;138975;-58
2022/07/09 20:34:01;;;;;;;4.20;2.50;;;;;;;21.00;45.98;99113.15;235546;1203;139050;-59
2022/07/09 20:39:04;;;;;;;8.00;2.90;;;;;;;20.93;46.11;99116.81;235897;1200;138807;-59
2022/07/09 20:44:07;;;;;;;5.10;2.70;;;;;;;20.83;46.21;99112.41;235724;1203;139031;-57
2022/07/09 20:49:13;;;;;;;9.10;6.00;;;;;;;20.77;46.32;99113.20;235753;1201;138806;-58
2022/07/09 20:54:17;;;;;;;7.10;3.50;;;;;;;20.69;46.49;99109.86;235738;1203;139213;-59
2022/07/09 20:59:20;;;;;;;5.00;2.90;;;;;;;20.62;46.57;99110.98;235703;1203;139668;-57
2022/07/09 21:04:23;;;;;;;4.50;2.40;;;;;;;20.58;46.43;99116.09;235158;1203;138546;-60
2022/07/09 21:09:26;;;;;;;6.40;2.80;;;;;;;20.52;46.44;99113.35;235935;1201;139446;-59
2022/07/09 21:14:29;;;;;;;8.40;2.80;;;;;;;20.49;46.54;99115.70;235756;1203;138743;-56
2022/07/09 21:19:32;;;;;;;5.80;2.40;;;;;;;20.47;46.44;99122.17;235702;1203;138908;-59
2022/07/09 21:24:35;;;;;;;4.90;2.80;;;;;;;20.42;46.45;99123.90;235628;1201;139403;-59
2022/07/09 21:29:38;;;;;;;7.50;2.70;;;;;;;20.35;46.72;99125.00;235754;1201;140649;-57
2022/07/09 21:34:40;;;;;;;6.60;2.70;;;;;;;20.28;46.77;99124.64;235835;1201;138778;-58
2022/07/09 21:39:44;;;;;;;5.40;2.80;;;;;;;20.17;47.02;99123.66;235850;1201;139174;-59
2022/07/09 21:44:49;;;;;;;7.90;5.90;;;;;;;20.09;47.21;99130.05;235762;1202;139986;-59
2022/07/09 21:49:53;;;;;;;7.70;2.90;;;;;;;20.00;47.40;99127.81;235684;1203;139382;-57
2022/07/09 21:54:56;;;;;;;5.90;3.20;;;;;;;19.94;47.63;99125.06;234976;1200;139256;-58
2022/07/09 21:59:59;;;;;;;5.00;3.30;;;;;;;19.86;47.76;99115.94;235704;1203;139228;-58
2022/07/09 22:05:02;;;;;;;7.90;3.00;;;;;;;19.74;47.94;99119.57;235503;1201;141518;-59
2022/07/09 22:10:06;;;;;;;6.40;3.10;;;;;;;19.66;48.20;99116.09;235626;1202;139577;-56
2022/07/09 22:15:09;;;;;;;6.40;3.70;;;;;;;19.57;48.22;99114.23;235826;1203;138695;-59
2022/07/09 22:20:12;;;;;;;9.30;3.60;;;;;;;19.53;48.33;99118.38;235536;1203;138546;-59
2022/07/09 22:25:15;;;;;;;9.20;3.60;;;;;;;19.44;48.47;99114.65;235755;1201;138860;-60
2022/07/09 22:30:23;;;;;;;6.70;3.30;;;;;;;19.36;48.65;99106.91;235708;1203;139244;-59
2022/07/09 22:35:26;;;;;;;8.40;4.10;;;;;;;19.31;48.69;99106.85;235726;1202;138825;-59
2022/07/09 22:40:29;;;;;;;6.50;3.60;;;;;;;19.26;48.79;99101.06;235769;1201;139072;-58
2022/07/09 22:45:33;;;;;;;7.80;3.60;;;;;;;19.20;48.76;99097.22;235782;1201;138819;-59
2022/07/09 22:50:36;;;;;;;10.70;3.70;;;;;;;19.12;48.68;99090.33;235908;1201;138689;-61
2022/07/09 22:55:39;;;;;;;7.40;3.70;;;;;;;19.06;48.74;99094.96;235804;1200;139836;-60
2022/07/09 23:00:42;;;;;;;6.80;3.70;;;;;;;18.98;48.96;99090.70;235863;1201;139263;-60
2022/07/09 23:05:45;;;;;;;7.80;3.70;;;;;;;18.95;49.07;99096.23;235695;1203;139414;-59
2022/07/09 23:10:48;;;;;;;8.60;3.40;;;;;;;18.86;49.26;99092.86;235780;1201;139719;-59
2022/07/09 23:15:51;;;;;;;6.30;3.30;;;;;;;18.79;49.20;99090.14;235844;1203;138561;-57
2022/07/09 23:20:54;;;;;;;6.80;3.60;;;;;;;18.77;49.53;99083.73;235843;1202;139169;-60